Time;durP1;ratioP1;P1;durP2;ratioP2;P2;SDS_P1;SDS_P2;PMS_P1;PMS_P2;Temp;Humidity;BMP_temperature;BMP_pressure;BME280_temperature;BME280_humidity;BME280_pressure;Samples;Min_cycle;Max_cycle;Signal;HPM_P1;HPM_P2
2023/12/18 00:02:15;;;;;;;;;;;;;;;;;;5145447;28;20004;-58
2023/12/18 00:04:47;;;;;;;;;;;;;;;;;;5143150;28;20320;-59
2023/12/18 00:07:18;;;;;;;;;;;;;;;;;;5149314;28;19980;-59
2023/12/18 00:09:49;;;;;;;;;;;;;;;;;;5129576;28;19922;-59
2023/12/18 00:12:20;;;;;;;;;;;;;;;;;;5162259;28;19979;-59
2023/12/18 00:14:51;;;;;;;;;;;;;;;;;;5143293;28;19918;-57
2023/12/18 00:17:22;;;;;;;;;;;;;;;;;;5142589;28;19981;-57
2023/12/18 00:19:53;;;;;;;;;;;;;;;;;;5126961;28;19971;-58
2023/12/18 00:22:24;;;;;;;;;;;;;;;;;;5126353;28;19965;-58
2023/12/18 00:24:55;;;;;;;;;;;;;;;;;;5126529;28;19926;-58
2023/12/18 00:27:26;;;;;;;;;;;;;;;;;;5126633;28;20386;-57
2023/12/18 00:29:57;;;;;;;;;;;;;;;;;;5126108;28;20017;-58
2023/12/18 00:32:28;;;;;;;;;;;;;;;;;;5126140;28;20017;-58
2023/12/18 00:34:59;;;;;;;;;;;;;;;;;;5126847;28;20400;-58
2023/12/18 00:37:30;;;;;;;;;;;;;;;;;;5142341;28;19972;-58
2023/12/18 00:40:01;;;;;;;;;;;;;;;;;;5126284;28;19926;-58
2023/12/18 00:42:32;;;;;;;;;;;;;;;;;;5144554;28;19924;-57
2023/12/18 00:45:03;;;;;;;;;;;;;;;;;;5146418;28;19918;-57
2023/12/18 00:47:34;;;;;;;;;;;;;;;;;;5142394;28;20002;-57
2023/12/18 00:50:09;;;;;;;;;;;;;;;;;;5141666;28;20013;-57
2023/12/18 00:52:40;;;;;;;;;;;;;;;;;;5128538;28;19922;-56
2023/12/18 00:55:11;;;;;;;;;;;;;;;;;;5126556;28;19976;-58
2023/12/18 00:57:42;;;;;;;;;;;;;;;;;;5144205;28;19922;-58
2023/12/18 01:00:13;;;;;;;;;;;;;;;;;;5132389;28;20277;-58
2023/12/18 01:02:46;;;;;;;;;;;;;;;;;;5126351;28;20289;-58
2023/12/18 01:05:17;;;;;;;;;;;;;;;;;;5127876;28;19918;-58
2023/12/18 01:07:48;;;;;;;;;;;;;;;;;;5142413;28;19933;-58
2023/12/18 01:10:19;;;;;;;;;;;;;;;;;;5152852;28;19984;-59
2023/12/18 01:12:50;;;;;;;;;;;;;;;;;;5166020;28;19924;-59
2023/12/18 01:15:21;;;;;;;;;;;;;;;;;;5149894;28;19925;-58
2023/12/18 01:17:52;;;;;;;;;;;;;;;;;;5150046;28;19918;-58
2023/12/18 01:20:23;;;;;;;;;;;;;;;;;;5141931;28;19922;-58
2023/12/18 01:22:54;;;;;;;;;;;;;;;;;;5149668;28;20431;-57
2023/12/18 01:25:25;;;;;;;;;;;;;;;;;;5125794;28;19925;-58
2023/12/18 01:27:56;;;;;;;;;;;;;;;;;;5149257;28;19926;-58
2023/12/18 01:30:27;;;;;;;;;;;;;;;;;;5143970;28;19922;-57
2023/12/18 01:32:58;;;;;;;;;;;;;;;;;;5141352;28;19926;-58
2023/12/18 01:35:29;;;;;;;;;;;;;;;;;;5141621;28;19964;-57
2023/12/18 01:38:00;;;;;;;;;;;;;;;;;;5141393;28;19918;-58
2023/12/18 01:40:31;;;;;;;;;;;;;;;;;;5142102;28;19918;-58
2023/12/18 01:43:02;;;;;;;;;;;;;;;;;;5125796;28;20004;-57
2023/12/18 01:45:33;;;;;;;;;;;;;;;;;;5130181;28;19917;-58
2023/12/18 01:48:04;;;;;;;;;;;;;;;;;;5141463;28;19925;-57
2023/12/18 01:50:35;;;;;;;;;;;;;;;;;;5125450;28;20325;-58
2023/12/18 01:53:06;;;;;;;;;;;;;;;;;;5141236;28;19922;-57
2023/12/18 01:55:37;;;;;;;;;;;;;;;;;;5141220;28;19918;-58
2023/12/18 01:58:08;;;;;;;;;;;;;;;;;;5132864;28;19989;-57
2023/12/18 02:00:39;;;;;;;;;;;;;;;;;;5125348;28;20009;-57
2023/12/18 02:03:10;;;;;;;;;;;;;;;;;;5141119;28;19918;-57
2023/12/18 02:05:41;;;;;;;;;;;;;;;;;;5163218;28;19941;-58
2023/12/18 02:08:12;;;;;;;;;;;;;;;;;;5142165;28;19929;-57
2023/12/18 02:10:43;;;;;;;;;;;;;;;;;;5129298;28;19922;-57
2023/12/18 02:13:14;;;;;;;;;;;;;;;;;;5125050;28;19918;-63
2023/12/18 02:15:45;;;;;;;;;;;;;;;;;;5140805;28;19918;-58
2023/12/18 02:18:17;;;;;;;;;;;;;;;;;;5140997;28;20397;-57
2023/12/18 02:20:48;;;;;;;;;;;;;;;;;;5141173;28;20597;-59
2023/12/18 02:23:19;;;;;;;;;;;;;;;;;;5132454;28;19921;-58
2023/12/18 02:25:50;;;;;;;;;;;;;;;;;;5124791;28;20250;-58
2023/12/18 02:28:21;;;;;;;;;;;;;;;;;;5125155;28;19918;-57
2023/12/18 02:30:52;;;;;;;;;;;;;;;;;;5140817;28;19976;-57
2023/12/18 02:33:23;;;;;;;;;;;;;;;;;;5124562;28;19922;-57
2023/12/18 02:35:54;;;;;;;;;;;;;;;;;;5141625;28;19953;-57
2023/12/18 02:38:25;;;;;;;;;;;;;;;;;;5147602;28;19969;-56
2023/12/18 02:40:56;;;;;;;;;;;;;;;;;;5124588;28;19918;-57
2023/12/18 02:43:27;;;;;;;;;;;;;;;;;;5140838;28;20289;-56
2023/12/18 02:45:58;;;;;;;;;;;;;;;;;;5143914;28;19918;-58
2023/12/18 02:48:29;;;;;;;;;;;;;;;;;;5147999;28;20266;-58
2023/12/18 02:51:02;;;;;;;;;;;;;;;;;;5144681;28;19928;-58
2023/12/18 02:53:33;;;;;;;;;;;;;;;;;;5143454;28;19965;-58
2023/12/18 02:56:04;;;;;;;;;;;;;;;;;;5140248;28;19922;-57
2023/12/18 02:58:35;;;;;;;;;;;;;;;;;;5144694;28;19927;-57
2023/12/18 03:01:06;;;;;;;;;;;;;;;;;;5143296;28;20026;-57
2023/12/18 03:03:37;;;;;;;;;;;;;;;;;;5144588;28;19962;-58
2023/12/18 03:06:08;;;;;;;;;;;;;;;;;;5124546;28;20016;-58
2023/12/18 03:08:39;;;;;;;;;;;;;;;;;;5128167;28;19918;-58
2023/12/18 03:11:10;;;;;;;;;;;;;;;;;;5131715;28;19925;-58
2023/12/18 03:13:41;;;;;;;;;;;;;;;;;;5139728;28;19925;-58
2023/12/18 03:16:12;;;;;;;;;;;;;;;;;;5124593;28;20467;-58
2023/12/18 03:18:43;;;;;;;;;;;;;;;;;;5128470;28;20050;-58
2023/12/18 03:21:14;;;;;;;;;;;;;;;;;;5144292;28;19929;-58
2023/12/18 03:23:45;;;;;;;;;;;;;;;;;;5151316;28;20361;-59
2023/12/18 03:26:16;;;;;;;;;;;;;;;;;;5127996;28;19918;-59
2023/12/18 03:28:47;;;;;;;;;;;;;;;;;;5150429;28;20321;-59
2023/12/18 03:31:18;;;;;;;;;;;;;;;;;;5143596;28;19922;-59
2023/12/18 03:33:49;;;;;;;;;;;;;;;;;;5127748;28;20437;-59
2023/12/18 03:36:20;;;;;;;;;;;;;;;;;;5128225;28;19929;-59
2023/12/18 03:38:51;;;;;;;;;;;;;;;;;;5143735;28;20343;-58
2023/12/18 03:41:22;;;;;;;;;;;;;;;;;;5143824;28;20012;-59
2023/12/18 03:43:53;;;;;;;;;;;;;;;;;;5143665;28;20293;-60
2023/12/18 03:46:24;;;;;;;;;;;;;;;;;;5144111;28;19984;-58
2023/12/18 03:48:55;;;;;;;;;;;;;;;;;;5149556;28;19988;-59
2023/12/18 03:51:26;;;;;;;;;;;;;;;;;;5143783;28;20365;-59
2023/12/18 03:53:57;;;;;;;;;;;;;;;;;;5143316;28;19937;-58
2023/12/18 03:56:28;;;;;;;;;;;;;;;;;;5143653;28;20297;-58
2023/12/18 03:58:59;;;;;;;;;;;;;;;;;;5143628;28;19921;-57
2023/12/18 04:01:30;;;;;;;;;;;;;;;;;;5143519;28;19984;-58
2023/12/18 04:04:01;;;;;;;;;;;;;;;;;;5127788;28;19996;-58
2023/12/18 04:06:32;;;;;;;;;;;;;;;;;;5127780;28;19925;-58
2023/12/18 04:09:03;;;;;;;;;;;;;;;;;;5127632;28;20369;-58
2023/12/18 04:11:34;;;;;;;;;;;;;;;;;;5149621;28;19928;-58
2023/12/18 04:14:05;;;;;;;;;;;;;;;;;;5143356;28;19918;-57
2023/12/18 04:16:36;;;;;;;;;;;;;;;;;;5127029;28;20024;-59
2023/12/18 04:19:07;;;;;;;;;;;;;;;;;;5143036;28;19922;-59
2023/12/18 04:21:38;;;;;;;;;;;;;;;;;;5142644;28;20037;-58
2023/12/18 04:24:09;;;;;;;;;;;;;;;;;;5126977;28;19926;-58
2023/12/18 04:26:41;;;;;;;;;;;;;;;;;;5143288;28;20000;-59
2023/12/18 04:29:11;;;;;;;;;;;;;;;;;;5143201;28;20008;-57
2023/12/18 04:31:43;;;;;;;;;;;;;;;;;;5142148;28;19937;-57
2023/12/18 04:34:13;;;;;;;;;;;;;;;;;;5142579;28;19964;-59
2023/12/18 04:36:44;;;;;;;;;;;;;;;;;;5142404;28;20361;-59
2023/12/18 04:39:15;;;;;;;;;;;;;;;;;;5143043;28;20293;-58
2023/12/18 04:41:46;;;;;;;;;;;;;;;;;;5126574;28;19929;-59
2023/12/18 04:44:17;;;;;;;;;;;;;;;;;;5142390;28;19918;-58
2023/12/18 04:46:48;;;;;;;;;;;;;;;;;;5128201;28;20029;-58
2023/12/18 04:49:19;;;;;;;;;;;;;;;;;;5142190;28;20309;-58
2023/12/18 04:51:50;;;;;;;;;;;;;;;;;;5142370;28;19932;-57
2023/12/18 04:54:21;;;;;;;;;;;;;;;;;;5141556;28;19918;-58
2023/12/18 04:56:53;;;;;;;;;;;;;;;;;;5142768;28;19925;-59
2023/12/18 04:59:24;;;;;;;;;;;;;;;;;;5144562;28;20383;-59
2023/12/18 05:01:55;;;;;;;;;;;;;;;;;;5147363;28;19918;-59
2023/12/18 05:04:26;;;;;;;;;;;;;;;;;;5141961;28;19921;-59
2023/12/18 05:06:57;;;;;;;;;;;;;;;;;;5126252;28;19918;-59
2023/12/18 05:09:28;;;;;;;;;;;;;;;;;;5142019;28;19949;-60
2023/12/18 05:11:59;;;;;;;;;;;;;;;;;;5144510;28;19922;-58
2023/12/18 05:14:29;;;;;;;;;;;;;;;;;;5126945;28;19926;-59
2023/12/18 05:17:00;;;;;;;;;;;;;;;;;;5141759;28;19965;-59
2023/12/18 05:19:31;;;;;;;;;;;;;;;;;;5142145;28;19922;-57
2023/12/18 05:22:03;;;;;;;;;;;;;;;;;;5141527;28;19992;-58
2023/12/18 05:24:34;;;;;;;;;;;;;;;;;;5133016;28;19918;-58
2023/12/18 05:27:05;;;;;;;;;;;;;;;;;;5141571;28;19918;-58
2023/12/18 05:29:36;;;;;;;;;;;;;;;;;;5141079;28;19917;-58
2023/12/18 05:32:07;;;;;;;;;;;;;;;;;;5148479;28;20016;-58
2023/12/18 05:34:38;;;;;;;;;;;;;;;;;;5142451;28;19918;-60
2023/12/18 05:37:09;;;;;;;;;;;;;;;;;;5147232;28;19918;-57
2023/12/18 05:39:40;;;;;;;;;;;;;;;;;;5141859;28;19929;-58
2023/12/18 05:42:11;;;;;;;;;;;;;;;;;;5125587;28;19923;-57
2023/12/18 05:44:42;;;;;;;;;;;;;;;;;;5125227;28;20396;-58
2023/12/18 05:47:13;;;;;;;;;;;;;;;;;;5138731;28;19926;-58
2023/12/18 05:49:44;;;;;;;;;;;;;;;;;;5141728;28;19918;-58
2023/12/18 05:52:15;;;;;;;;;;;;;;;;;;5140916;28;19980;-58
2023/12/18 05:54:46;;;;;;;;;;;;;;;;;;5126142;28;19925;-58
2023/12/18 05:57:17;;;;;;;;;;;;;;;;;;5126094;28;19917;-58
2023/12/18 05:59:48;;;;;;;;;;;;;;;;;;5125175;28;19922;-58
2023/12/18 06:02:19;;;;;;;;;;;;;;;;;;5141600;28;20281;-57
2023/12/18 06:04:50;;;;;;;;;;;;;;;;;;5141441;28;19925;-58
2023/12/18 06:07:21;;;;;;;;;;;;;;;;;;5125457;28;19961;-58
2023/12/18 06:09:52;;;;;;;;;;;;;;;;;;5141452;28;20346;-58
2023/12/18 06:12:23;;;;;;;;;;;;;;;;;;5143533;28;20048;-57
2023/12/18 06:14:54;;;;;;;;;;;;;;;;;;5141714;28;20619;-57
2023/12/18 06:17:25;;;;;;;;;;;;;;;;;;5125475;28;19985;-58
2023/12/18 06:19:56;;;;;;;;;;;;;;;;;;5141162;28;19973;-57
2023/12/18 06:22:27;;;;;;;;;;;;;;;;;;5121378;28;19973;-57
2023/12/18 06:24:58;;;;;;;;;;;;;;;;;;5120384;28;20373;-57
2023/12/18 06:27:29;;;;;;;;;;;;;;;;;;5141116;28;19918;-58
2023/12/18 06:30:00;;;;;;;;;;;;;;;;;;5125159;28;19981;-58
2023/12/18 06:32:31;;;;;;;;;;;;;;;;;;5124955;28;19922;-58
2023/12/18 06:35:03;;;;;;;;;;;;;;;;;;5124651;28;19918;-57
2023/12/18 06:37:34;;;;;;;;;;;;;;;;;;5144471;28;19918;-57
2023/12/18 06:40:05;;;;;;;;;;;;;;;;;;5141347;28;19918;-57
2023/12/18 06:42:35;;;;;;;;;;;;;;;;;;5141081;28;20012;-57
2023/12/18 06:45:06;;;;;;;;;;;;;;;;;;5125223;28;19922;-57
2023/12/18 06:47:37;;;;;;;;;;;;;;;;;;5124566;28;20001;-57
2023/12/18 06:50:08;;;;;;;;;;;;;;;;;;5144555;28;19918;-58
2023/12/18 06:52:39;;;;;;;;;;;;;;;;;;5160804;28;19930;-57
2023/12/18 06:55:10;;;;;;;;;;;;;;;;;;5148632;28;19917;-57
2023/12/18 06:57:42;;;;;;;;;;;;;;;;;;5146845;28;20281;-58
2023/12/18 07:00:13;;;;;;;;;;;;;;;;;;5144859;28;19918;-58
2023/12/18 07:02:44;;;;;;;;;;;;;;;;;;5156009;28;20247;-58
2023/12/18 07:05:16;;;;;;;;;;;;;;;;;;5144709;28;19929;-58
2023/12/18 07:07:47;;;;;;;;;;;;;;;;;;5127859;28;20008;-58
2023/12/18 07:10:18;;;;;;;;;;;;;;;;;;5143746;28;20430;-59
2023/12/18 07:12:49;;;;;;;;;;;;;;;;;;5143059;28;20458;-58
2023/12/18 07:15:23;;;;;;;;;;;;;;;;;;5127509;28;19961;-59
2023/12/18 07:17:58;;;;;;;;;;;;;;;;;;5142810;28;20017;-58
2023/12/18 07:20:29;;;;;;;;;;;;;;;;;;5142855;28;19929;-57
2023/12/18 07:23:00;;;;;;;;;;;;;;;;;;5126983;28;19944;-58
2023/12/18 07:25:31;;;;;;;;;;;;;;;;;;5142840;28;19918;-58
2023/12/18 07:28:02;;;;;;;;;;;;;;;;;;5126769;28;20017;-58
2023/12/18 07:30:33;;;;;;;;;;;;;;;;;;5148707;28;20388;-58
2023/12/18 07:33:04;;;;;;;;;;;;;;;;;;5126347;28;20002;-58
2023/12/18 07:35:35;;;;;;;;;;;;;;;;;;5127182;28;20001;-58
2023/12/18 07:38:06;;;;;;;;;;;;;;;;;;5143010;28;19936;-58
2023/12/18 07:40:37;;;;;;;;;;;;;;;;;;5126717;28;20016;-58
2023/12/18 07:43:08;;;;;;;;;;;;;;;;;;5142838;28;19948;-58
2023/12/18 07:45:39;;;;;;;;;;;;;;;;;;5142978;28;19914;-58
2023/12/18 07:48:10;;;;;;;;;;;;;;;;;;5142602;28;19926;-61
2023/12/18 07:50:41;;;;;;;;;;;;;;;;;;5126190;28;19937;-59
2023/12/18 07:53:12;;;;;;;;;;;;;;;;;;5125638;28;19969;-62
2023/12/18 07:55:43;;;;;;;;;;;;;;;;;;5141850;28;19914;-59
2023/12/18 07:58:14;;;;;;;;;;;;;;;;;;5141681;28;19925;-59
2023/12/18 08:00:45;;;;;;;;;;;;;;;;;;5141668;28;19914;-59
2023/12/18 08:03:16;;;;;;;;;;;;;;;;;;5141786;28;19926;-59
2023/12/18 08:05:47;;;;;;;;;;;;;;;;;;5126335;28;19918;-60
2023/12/18 08:08:18;;;;;;;;;;;;;;;;;;4988919;28;3947363;-59
2023/12/18 08:10:49;;;;;;;;;;;;;;;;;;5143097;28;19965;-58
2023/12/18 08:13:20;;;;;;;;;;;;;;;;;;5142475;28;20001;-58
2023/12/18 08:15:51;;;;;;;;;;;;;;;;;;5143024;28;20014;-61
2023/12/18 08:18:22;;;;;;;;;;;;;;;;;;5126471;28;20333;-59
2023/12/18 08:20:53;;;;;;;;;;;;;;;;;;5142510;28;20105;-61
2023/12/18 08:23:24;;;;;;;;;;;;;;;;;;5142162;28;19932;-60
2023/12/18 08:25:55;;;;;;;;;;;;;;;;;;5127084;28;19918;-61
2023/12/18 08:28:26;;;;;;;;;;;;;;;;;;5142382;28;19948;-60
2023/12/18 08:30:57;;;;;;;;;;;;;;;;;;5127382;28;20343;-61
2023/12/18 08:33:28;;;;;;;;;;;;;;;;;;5145825;28;19918;-60
2023/12/18 08:35:59;;;;;;;;;;;;;;;;;;5143560;28;20401;-60
2023/12/18 08:38:30;;;;;;;;;;;;;;;;;;5143072;28;19926;-60
2023/12/18 08:41:01;;;;;;;;;;;;;;;;;;5127070;28;19918;-60
2023/12/18 08:43:32;;;;;;;;;;;;;;;;;;5126616;28;20012;-60
2023/12/18 08:46:03;;;;;;;;;;;;;;;;;;5147263;28;21202;-60
2023/12/18 08:48:34;;;;;;;;;;;;;;;;;;5126701;28;20005;-60
2023/12/18 08:51:05;;;;;;;;;;;;;;;;;;5143074;28;20461;-60
2023/12/18 08:53:37;;;;;;;;;;;;;;;;;;5142639;28;19947;-60
2023/12/18 08:56:08;;;;;;;;;;;;;;;;;;5142639;28;19918;-60
2023/12/18 08:58:40;;;;;;;;;;;;;;;;;;5131051;28;19918;-61
2023/12/18 09:01:12;;;;;;;;;;;;;;;;;;5142403;28;19929;-60
2023/12/18 09:03:43;;;;;;;;;;;;;;;;;;5125981;28;19917;-58
2023/12/18 09:06:14;;;;;;;;;;;;;;;;;;5126688;28;19925;-58
2023/12/18 09:08:45;;;;;;;;;;;;;;;;;;5142698;28;19918;-58
2023/12/18 09:11:16;;;;;;;;;;;;;;;;;;5146914;28;19969;-59
2023/12/18 09:13:47;;;;;;;;;;;;;;;;;;5139879;28;20329;-58
2023/12/18 09:16:18;;;;;;;;;;;;;;;;;;5142132;28;19934;-58
2023/12/18 09:18:49;;;;;;;;;;;;;;;;;;5126187;28;19918;-58
2023/12/18 09:21:20;;;;;;;;;;;;;;;;;;5125820;28;20017;-58
2023/12/18 09:23:50;;;;;;;;;;;;;;;;;;5125773;28;20332;-58
2023/12/18 09:26:21;;;;;;;;;;;;;;;;;;5141904;28;19994;-57
2023/12/18 09:28:53;;;;;;;;;;;;;;;;;;5126058;28;20012;-58
2023/12/18 09:31:24;;;;;;;;;;;;;;;;;;5129588;28;20487;-57
2023/12/18 09:33:55;;;;;;;;;;;;;;;;;;5144727;28;19957;-58
2023/12/18 09:36:26;;;;;;;;;;;;;;;;;;5142369;28;19922;-58
2023/12/18 09:38:57;;;;;;;;;;;;;;;;;;5146232;28;20024;-57
2023/12/18 09:41:28;;;;;;;;;;;;;;;;;;5126640;28;20013;-60
2023/12/18 09:43:59;;;;;;;;;;;;;;;;;;5126854;28;19922;-59
2023/12/18 09:46:30;;;;;;;;;;;;;;;;;;5143141;28;19918;-56
2023/12/18 09:49:01;;;;;;;;;;;;;;;;;;5142611;28;20004;-56
2023/12/18 09:51:32;;;;;;;;;;;;;;;;;;5140698;28;20017;-56
2023/12/18 09:54:03;;;;;;;;;;;;;;;;;;5141098;28;20261;-58
2023/12/18 09:56:34;;;;;;;;;;;;;;;;;;5142051;28;19922;-58
2023/12/18 09:59:05;;;;;;;;;;;;;;;;;;5141748;28;20297;-58
2023/12/18 10:01:38;;;;;;;;;;;;;;;;;;5141860;28;19925;-57
2023/12/18 10:04:09;;;;;;;;;;;;;;;;;;5141731;28;19933;-58
2023/12/18 10:06:40;;;;;;;;;;;;;;;;;;5142677;28;20396;-57
2023/12/18 10:09:11;;;;;;;;;;;;;;;;;;5144080;28;19918;-57
2023/12/18 10:11:45;;;;;;;;;;;;;;;;;;5127357;28;20350;-58
2023/12/18 10:14:16;;;;;;;;;;;;;;;;;;5125740;28;20369;-58
2023/12/18 10:16:47;;;;;;;;;;;;;;;;;;5141476;28;19925;-55
2023/12/18 10:19:18;;;;;;;;;;;;;;;;;;5151106;28;20346;-57
2023/12/18 10:21:49;;;;;;;;;;;;;;;;;;5141734;28;19918;-57
2023/12/18 10:24:20;;;;;;;;;;;;;;;;;;5142356;28;19989;-57
2023/12/18 10:26:51;;;;;;;;;;;;;;;;;;5141778;28;19925;-57
2023/12/18 10:29:22;;;;;;;;;;;;;;;;;;5141237;28;19922;-57
2023/12/18 10:31:53;;;;;;;;;;;;;;;;;;5125077;28;19926;-57
2023/12/18 10:34:24;;;;;;;;;;;;;;;;;;5141015;28;19925;-57
2023/12/18 10:36:55;;;;;;;;;;;;;;;;;;5141580;28;19918;-57
2023/12/18 10:39:29;;;;;;;;;;;;;;;;;;5131305;28;19922;-57
2023/12/18 10:42:00;;;;;;;;;;;;;;;;;;5141135;28;19918;-58
2023/12/18 10:44:31;;;;;;;;;;;;;;;;;;5141264;28;19922;-58
2023/12/18 10:47:02;;;;;;;;;;;;;;;;;;5141103;28;20435;-58
2023/12/18 10:49:33;;;;;;;;;;;;;;;;;;5141450;28;19922;-57
2023/12/18 10:52:04;;;;;;;;;;;;;;;;;;5141009;28;19980;-58
2023/12/18 10:54:35;;;;;;;;;;;;;;;;;;5124991;28;19918;-59
2023/12/18 10:57:06;;;;;;;;;;;;;;;;;;5140666;28;20316;-57
2023/12/18 10:59:37;;;;;;;;;;;;;;;;;;5125090;28;20001;-57
2023/12/18 11:02:08;;;;;;;;;;;;;;;;;;5133435;28;19926;-57
2023/12/18 11:04:39;;;;;;;;;;;;;;;;;;5141457;28;20289;-58
2023/12/18 11:07:10;;;;;;;;;;;;;;;;;;5149160;28;20305;-57
2023/12/18 11:09:41;;;;;;;;;;;;;;;;;;5140838;28;20049;-57
2023/12/18 11:12:12;;;;;;;;;;;;;;;;;;5124587;28;20318;-57
2023/12/18 11:14:42;;;;;;;;;;;;;;;;;;5125347;28;19918;-57
2023/12/18 11:17:13;;;;;;;;;;;;;;;;;;5124994;28;20056;-57
2023/12/18 11:19:44;;;;;;;;;;;;;;;;;;5124824;28;19980;-57
2023/12/18 11:22:15;;;;;;;;;;;;;;;;;;5141178;28;20020;-57
2023/12/18 11:24:46;;;;;;;;;;;;;;;;;;5147152;28;19965;-57
2023/12/18 11:27:17;;;;;;;;;;;;;;;;;;5141024;28;19925;-58
2023/12/18 11:29:49;;;;;;;;;;;;;;;;;;5140951;28;19922;-58
2023/12/18 11:32:20;;;;;;;;;;;;;;;;;;5139753;28;19927;-58
2023/12/18 11:34:51;;;;;;;;;;;;;;;;;;5142488;28;19926;-57
2023/12/18 11:37:22;;;;;;;;;;;;;;;;;;5144446;28;19918;-57
2023/12/18 11:39:53;;;;;;;;;;;;;;;;;;5127468;28;20358;-58
2023/12/18 11:42:24;;;;;;;;;;;;;;;;;;5144755;28;19963;-58
2023/12/18 11:44:55;;;;;;;;;;;;;;;;;;5144342;28;19918;-58
2023/12/18 11:47:26;;;;;;;;;;;;;;;;;;5150608;28;20431;-58
2023/12/18 11:49:57;;;;;;;;;;;;;;;;;;5143876;28;19976;-57
2023/12/18 11:52:27;;;;;;;;;;;;;;;;;;5144275;28;19926;-58
2023/12/18 11:54:58;;;;;;;;;;;;;;;;;;5143938;28;20009;-57
2023/12/18 11:57:29;;;;;;;;;;;;;;;;;;5146526;28;19925;-58
2023/12/18 12:00:00;;;;;;;;;;;;;;;;;;5143654;28;19922;-58
2023/12/18 12:02:33;;;;;;;;;;;;;;;;;;5148125;28;19918;-58
2023/12/18 12:05:05;;;;;;;;;;;;;;;;;;5143703;28;20550;-58
2023/12/18 12:07:38;;;;;;;;;;;;;;;;;;5150568;28;19941;-58
2023/12/18 12:10:09;;;;;;;;;;;;;;;;;;5129971;28;19952;-57
2023/12/18 12:12:40;;;;;;;;;;;;;;;;;;5143742;28;19972;-58
2023/12/18 12:15:11;;;;;;;;;;;;;;;;;;5127642;28;19925;-58
2023/12/18 12:17:42;;;;;;;;;;;;;;;;;;5127521;28;19922;-58
2023/12/18 12:20:13;;;;;;;;;;;;;;;;;;5143853;28;19918;-57
2023/12/18 12:22:44;;;;;;;;;;;;;;;;;;5143663;28;19918;-58
2023/12/18 12:25:15;;;;;;;;;;;;;;;;;;5144791;28;19989;-59
2023/12/18 12:27:46;;;;;;;;;;;;;;;;;;5143916;28;19922;-58
2023/12/18 12:30:18;;;;;;;;;;;;;;;;;;5148159;28;19918;-58
2023/12/18 12:32:48;;;;;;;;;;;;;;;;;;5143386;28;19992;-58
2023/12/18 12:35:19;;;;;;;;;;;;;;;;;;5143369;28;19929;-58
2023/12/18 12:37:50;;;;;;;;;;;;;;;;;;5143135;28;19928;-56
2023/12/18 12:40:21;;;;;;;;;;;;;;;;;;5127675;28;20324;-58
2023/12/18 12:42:52;;;;;;;;;;;;;;;;;;5143076;28;19917;-57
2023/12/18 12:45:24;;;;;;;;;;;;;;;;;;5129911;28;19956;-58
2023/12/18 12:47:55;;;;;;;;;;;;;;;;;;5142118;28;20019;-57
2023/12/18 12:50:26;;;;;;;;;;;;;;;;;;5126144;28;19918;-58
2023/12/18 12:52:57;;;;;;;;;;;;;;;;;;5142706;28;19918;-58
2023/12/18 12:55:28;;;;;;;;;;;;;;;;;;5143237;28;19914;-58
2023/12/18 12:57:59;;;;;;;;;;;;;;;;;;5146241;28;20020;-58
2023/12/18 13:00:30;;;;;;;;;;;;;;;;;;5143221;28;20409;-56
2023/12/18 13:03:01;;;;;;;;;;;;;;;;;;5142453;28;20281;-56
2023/12/18 13:05:32;;;;;;;;;;;;;;;;;;5142092;28;19922;-57
2023/12/18 13:08:04;;;;;;;;;;;;;;;;;;5145583;28;19918;-56
2023/12/18 13:10:35;;;;;;;;;;;;;;;;;;5148295;28;19937;-56
2023/12/18 13:13:07;;;;;;;;;;;;;;;;;;5147259;28;19918;-57
2023/12/18 13:15:38;;;;;;;;;;;;;;;;;;5146867;28;19969;-57
2023/12/18 13:18:11;;;;;;;;;;;;;;;;;;5125927;28;19958;-57
2023/12/18 13:20:41;;;;;;;;;;;;;;;;;;5145237;28;20336;-57
2023/12/18 13:23:14;;;;;;;;;;;;;;;;;;5145020;28;20013;-56
2023/12/18 13:25:45;;;;;;;;;;;;;;;;;;5146341;28;19918;-58
2023/12/18 13:28:16;;;;;;;;;;;;;;;;;;5142612;28;20013;-58
2023/12/18 13:30:47;;;;;;;;;;;;;;;;;;5129552;28;19926;-58
2023/12/18 13:33:18;;;;;;;;;;;;;;;;;;5144916;28;19941;-57
2023/12/18 13:35:49;;;;;;;;;;;;;;;;;;5142709;28;20359;-58
2023/12/18 13:38:20;;;;;;;;;;;;;;;;;;5143590;28;19938;-57
2023/12/18 13:40:51;;;;;;;;;;;;;;;;;;5142056;28;20326;-57
2023/12/18 13:43:22;;;;;;;;;;;;;;;;;;5142072;28;19921;-56
2023/12/18 13:45:53;;;;;;;;;;;;;;;;;;5149633;28;19922;-58
2023/12/18 13:48:24;;;;;;;;;;;;;;;;;;5126020;28;19929;-57
2023/12/18 13:50:55;;;;;;;;;;;;;;;;;;5142990;28;20350;-58
2023/12/18 13:53:26;;;;;;;;;;;;;;;;;;5142264;28;20036;-57
2023/12/18 13:55:57;;;;;;;;;;;;;;;;;;5142653;28;20008;-58
2023/12/18 13:58:28;;;;;;;;;;;;;;;;;;5125995;28;20401;-58
2023/12/18 14:00:59;;;;;;;;;;;;;;;;;;5157608;28;19929;-58
2023/12/18 14:03:31;;;;;;;;;;;;;;;;;;5143785;28;19968;-57
2023/12/18 14:06:03;;;;;;;;;;;;;;;;;;5140737;28;19918;-57
2023/12/18 14:08:34;;;;;;;;;;;;;;;;;;5145276;28;19943;-57
2023/12/18 14:11:05;;;;;;;;;;;;;;;;;;5149169;28;19929;-56
2023/12/18 14:13:36;;;;;;;;;;;;;;;;;;5141505;28;20000;-57
2023/12/18 14:16:07;;;;;;;;;;;;;;;;;;5142339;28;19972;-56
2023/12/18 14:18:38;;;;;;;;;;;;;;;;;;5141473;28;19945;-57
2023/12/18 14:21:09;;;;;;;;;;;;;;;;;;5145860;28;20441;-57
2023/12/18 14:23:40;;;;;;;;;;;;;;;;;;5141533;28;20005;-57
2023/12/18 14:26:11;;;;;;;;;;;;;;;;;;5148122;28;19917;-57
2023/12/18 14:28:42;;;;;;;;;;;;;;;;;;5127188;28;20381;-56
2023/12/18 14:31:14;;;;;;;;;;;;;;;;;;5143224;28;19929;-56
2023/12/18 14:33:45;;;;;;;;;;;;;;;;;;5141756;28;19918;-57
2023/12/18 14:36:16;;;;;;;;;;;;;;;;;;5143761;28;20368;-57
2023/12/18 14:38:51;;;;;;;;;;;;;;;;;;5144532;28;19918;-58
2023/12/18 14:41:23;;;;;;;;;;;;;;;;;;5124817;28;19957;-61
2023/12/18 14:43:54;;;;;;;;;;;;;;;;;;5141121;28;20357;-60
2023/12/18 14:46:25;;;;;;;;;;;;;;;;;;5144769;28;19918;-61
2023/12/18 14:48:56;;;;;;;;;;;;;;;;;;5146328;28;19961;-60
2023/12/18 14:51:27;;;;;;;;;;;;;;;;;;5140861;28;19926;-61
2023/12/18 14:53:58;;;;;;;;;;;;;;;;;;5128015;28;19929;-59
2023/12/18 14:56:29;;;;;;;;;;;;;;;;;;5124825;28;19922;-60
2023/12/18 14:59:00;;;;;;;;;;;;;;;;;;5140448;28;19922;-62
2023/12/18 15:01:33;;;;;;;;;;;;;;;;;;5141320;28;19925;-61
2023/12/18 15:04:04;;;;;;;;;;;;;;;;;;5125101;28;20386;-59
2023/12/18 15:06:35;;;;;;;;;;;;;;;;;;5141584;28;19918;-59
2023/12/18 15:09:06;;;;;;;;;;;;;;;;;;5143327;28;19969;-61
2023/12/18 15:11:37;;;;;;;;;;;;;;;;;;5150359;28;20336;-59
2023/12/18 15:14:10;;;;;;;;;;;;;;;;;;5129208;28;19918;-59
2023/12/18 15:16:41;;;;;;;;;;;;;;;;;;5144938;28;19921;-59
2023/12/18 15:19:12;;;;;;;;;;;;;;;;;;5147743;28;20008;-59
2023/12/18 15:21:43;;;;;;;;;;;;;;;;;;5149707;28;20328;-59
2023/12/18 15:24:14;;;;;;;;;;;;;;;;;;5129028;28;19918;-59
2023/12/18 15:26:45;;;;;;;;;;;;;;;;;;5145126;28;19918;-59
2023/12/18 15:29:16;;;;;;;;;;;;;;;;;;5128800;28;20008;-60
2023/12/18 15:31:47;;;;;;;;;;;;;;;;;;5144453;28;19922;-59
2023/12/18 15:34:18;;;;;;;;;;;;;;;;;;5146195;28;20300;-60
2023/12/18 15:36:49;;;;;;;;;;;;;;;;;;5128921;28;19918;-60
2023/12/18 15:39:20;;;;;;;;;;;;;;;;;;5144363;28;20345;-59
2023/12/18 15:41:51;;;;;;;;;;;;;;;;;;5144778;28;20340;-59
2023/12/18 15:44:23;;;;;;;;;;;;;;;;;;5128265;28;19921;-59
2023/12/18 15:46:54;;;;;;;;;;;;;;;;;;5144582;28;19922;-59
2023/12/18 15:49:26;;;;;;;;;;;;;;;;;;5144153;28;20309;-59
2023/12/18 15:51:57;;;;;;;;;;;;;;;;;;5144236;28;19922;-59
2023/12/18 15:54:28;;;;;;;;;;;;;;;;;;5151295;28;19941;-59
2023/12/18 15:56:59;;;;;;;;;;;;;;;;;;5128569;28;19922;-60
2023/12/18 15:59:30;;;;;;;;;;;;;;;;;;5132444;28;19957;-60
2023/12/18 16:02:01;;;;;;;;;;;;;;;;;;5144493;28;20078;-60
2023/12/18 16:04:32;;;;;;;;;;;;;;;;;;5144955;28;20291;-60
2023/12/18 16:07:03;;;;;;;;;;;;;;;;;;5148896;28;20004;-59
2023/12/18 16:09:34;;;;;;;;;;;;;;;;;;5146006;28;20055;-60
2023/12/18 16:12:05;;;;;;;;;;;;;;;;;;5143786;28;20001;-60
2023/12/18 16:14:36;;;;;;;;;;;;;;;;;;5143008;28;19926;-58
2023/12/18 16:17:08;;;;;;;;;;;;;;;;;;5127970;28;19918;-61
2023/12/18 16:19:40;;;;;;;;;;;;;;;;;;5127597;28;19976;-59
2023/12/18 16:22:11;;;;;;;;;;;;;;;;;;5126361;28;19989;-59
2023/12/18 16:24:42;;;;;;;;;;;;;;;;;;5144668;28;19922;-60
2023/12/18 16:27:13;;;;;;;;;;;;;;;;;;5143355;28;19965;-61
2023/12/18 16:29:44;;;;;;;;;;;;;;;;;;5143500;28;19918;-61
2023/12/18 16:32:15;;;;;;;;;;;;;;;;;;5127105;28;19941;-61
2023/12/18 16:34:46;;;;;;;;;;;;;;;;;;5142912;28;19940;-61
2023/12/18 16:37:21;;;;;;;;;;;;;;;;;;5143285;28;19996;-60
2023/12/18 16:39:54;;;;;;;;;;;;;;;;;;5143918;28;19918;-60
2023/12/18 16:42:25;;;;;;;;;;;;;;;;;;5141024;28;19918;-62
2023/12/18 16:44:57;;;;;;;;;;;;;;;;;;5143688;28;19924;-62
2023/12/18 16:47:29;;;;;;;;;;;;;;;;;;5147442;28;19976;-61
2023/12/18 16:50:00;;;;;;;;;;;;;;;;;;5142218;28;19930;-61
2023/12/18 16:52:32;;;;;;;;;;;;;;;;;;5142310;28;19929;-62
2023/12/18 16:55:03;;;;;;;;;;;;;;;;;;5142946;28;19922;-60
2023/12/18 16:57:34;;;;;;;;;;;;;;;;;;5143161;28;19922;-61
2023/12/18 17:00:05;;;;;;;;;;;;;;;;;;5144091;28;19925;-59
2023/12/18 17:02:36;;;;;;;;;;;;;;;;;;5142644;28;19929;-59
2023/12/18 17:05:07;;;;;;;;;;;;;;;;;;5126675;28;20385;-59
2023/12/18 17:07:38;;;;;;;;;;;;;;;;;;5146104;28;19948;-59
2023/12/18 17:10:09;;;;;;;;;;;;;;;;;;5142194;28;19929;-59
2023/12/18 17:12:40;;;;;;;;;;;;;;;;;;5147990;28;20378;-61